Gulf Bridge — A8JM5 — position and weather

sailwx.info

Track history (hours):
 
Tides and Currents Weather Stations Pressure Air Temp Water Temp Dewpoint Dewpoint Depression Visibility Wind Speed Wind Dir Waves Ship Positions

Gulf Bridge

Last reported at 2014-Oct-26 20:30 UTC. Time now 2014-Oct-31 04:01 UTC.
Position S 39°22' E 148°37'.

Length 213 m; beam 32.2 m; draft 11.5 m.

Type: Cargo ship. MMSI: 636091115.

Date/timePositionNaut miles runAvg speedWind from/ knotsBaromVisibWave heightAir tempDewpointWater temp
2014-Oct-26 20:30S 39°22' E 148°37'1515.9
2014-Oct-26 19:34S 39°21' E 148°17'1717.0
2014-Oct-26 18:33S 39°20' E 147°55'1816.9
2014-Oct-26 17:31S 39°19' E 147°33'1616.4
2014-Oct-26 16:33S 39°19' E 147°12'1615.9
2014-Oct-26 15:33S 39°18' E 146°52'1615.6
2014-Oct-26 14:33S 39°17' E 146°32'1515.0
2014-Oct-26 13:34S 39°15' E 146°13'1615.9
2014-Oct-26 12:34S 39°07' E 145°54'1615.9
2014-Oct-26 11:34S 38°59' E 145°37'1615.9
2014-Oct-26 10:33S 38°50' E 145°20'1615.8
2014-Oct-26 09:32S 38°41' E 145°03'1515.8
2014-Oct-26 08:33S 38°32' E 144°46'1615.7
2014-Oct-26 07:33S 38°20' E 144°34'1 0.0
2014-Oct-24 20:33S 38°19' E 144°36'32 3.9
2014-Oct-24 12:29S 38°41' E 145°05'7 7.7
2014-Oct-24 11:33S 38°44' E 145°13'9 9.3
2014-Oct-24 10:33S 38°49' E 145°24'1110.8
2014-Oct-24 09:33S 38°54' E 145°36'1110.7
2014-Oct-24 08:33S 38°59' E 145°48'1111.0
2014-Oct-24 07:33S 39°04' E 146°00'1111.0
2014-Oct-24 06:33S 39°10' E 146°13'1110.7
2014-Oct-24 05:33S 39°09' E 146°27'1111.5
2014-Oct-24 04:33S 39°05' E 146°40'1211.8
2014-Oct-24 03:33S 39°02' E 146°55'1212.2
2014-Oct-24 02:33S 38°58' E 147°10'1312.6
2014-Oct-24 01:33S 38°55' E 147°26'1313.2
2014-Oct-24 00:33S 38°51' E 147°42'1313.4
2014-Oct-23 23:33S 38°46' E 147°58'1414.1
2014-Oct-23 22:33S 38°41' E 148°15'1918.9
2014-Oct-23 21:32S 38°33' E 148°37'1414.1
2014-Oct-23 20:33S 38°25' E 148°52'1313.0
2014-Oct-23 19:33S 38°16' E 149°04'1313.0
2014-Oct-23 18:31S 38°07' E 149°17'1412.5
2014-Oct-23 17:26S 37°59' E 149°30'1112.4
2014-Oct-23 16:33S 37°52' E 149°41'1212.6
2014-Oct-23 15:34S 37°43' E 149°52'1312.8
2014-Oct-23 14:33S 37°33' E 150°03'1313.1
2014-Oct-23 13:33S 37°21' E 150°10'5212.9
2014-Oct-23 09:31S 36°31' E 150°25'1313.3
2014-Oct-23 08:33S 36°18' E 150°28'1313.4
2014-Oct-23 07:33S 36°05' E 150°33'1913.2
2014-Oct-23 06:04S 35°47' E 150°41'109 3.6
2014-Oct-21 23:32S 34°04' E 151°24'8 7.2
2014-Oct-21 22:25S 34°12' E 151°24'5 1.7
2014-Oct-21 19:29S 34°08' E 151°28'4 1.6
2014-Oct-21 17:11S 34°05' E 151°30'5 6.6
2014-Oct-21 16:27S 34°07' E 151°35'  
Track history (hours):
 
Tides and Currents Weather Stations Pressure Air Temp Water Temp Dewpoint Dewpoint Depression Visibility Wind Speed Wind Dir Waves Ship Positions

Gulf Bridge

Last reported at 2014-Oct-26 20:30 UTC. Time now 2014-Oct-31 04:01 UTC.
Position S 39°22' E 148°37'.

Length 213 m; beam 32.2 m; draft 11.5 m.

Type: Cargo ship. MMSI: 636091115.

Date/timePositionNaut miles runAvg speedWind from/ knotsBaromVisibWave heightAir tempDewpointWater temp
2014-Oct-26 20:30S 39°22' E 148°37'1515.9
2014-Oct-26 19:34S 39°21' E 148°17'1717.0
2014-Oct-26 18:33S 39°20' E 147°55'1816.9
2014-Oct-26 17:31S 39°19' E 147°33'1616.4
2014-Oct-26 16:33S 39°19' E 147°12'1615.9
2014-Oct-26 15:33S 39°18' E 146°52'1615.6
2014-Oct-26 14:33S 39°17' E 146°32'1515.0
2014-Oct-26 13:34S 39°15' E 146°13'1615.9
2014-Oct-26 12:34S 39°07' E 145°54'1615.9
2014-Oct-26 11:34S 38°59' E 145°37'1615.9
2014-Oct-26 10:33S 38°50' E 145°20'1615.8
2014-Oct-26 09:32S 38°41' E 145°03'1515.8
2014-Oct-26 08:33S 38°32' E 144°46'1615.7
2014-Oct-26 07:33S 38°20' E 144°34'1 0.0
2014-Oct-24 20:33S 38°19' E 144°36'32 3.9
2014-Oct-24 12:29S 38°41' E 145°05'7 7.7
2014-Oct-24 11:33S 38°44' E 145°13'9 9.3
2014-Oct-24 10:33S 38°49' E 145°24'1110.8
2014-Oct-24 09:33S 38°54' E 145°36'1110.7
2014-Oct-24 08:33S 38°59' E 145°48'1111.0
2014-Oct-24 07:33S 39°04' E 146°00'1111.0
2014-Oct-24 06:33S 39°10' E 146°13'1110.7
2014-Oct-24 05:33S 39°09' E 146°27'1111.5
2014-Oct-24 04:33S 39°05' E 146°40'1211.8
2014-Oct-24 03:33S 39°02' E 146°55'1212.2
2014-Oct-24 02:33S 38°58' E 147°10'1312.6
2014-Oct-24 01:33S 38°55' E 147°26'1313.2
2014-Oct-24 00:33S 38°51' E 147°42'1313.4
2014-Oct-23 23:33S 38°46' E 147°58'1414.1
2014-Oct-23 22:33S 38°41' E 148°15'1918.9
2014-Oct-23 21:32S 38°33' E 148°37'1414.1
2014-Oct-23 20:33S 38°25' E 148°52'1313.0
2014-Oct-23 19:33S 38°16' E 149°04'1313.0
2014-Oct-23 18:31S 38°07' E 149°17'1412.5
2014-Oct-23 17:26S 37°59' E 149°30'1112.4
2014-Oct-23 16:33S 37°52' E 149°41'1212.6
2014-Oct-23 15:34S 37°43' E 149°52'1312.8
2014-Oct-23 14:33S 37°33' E 150°03'1313.1
2014-Oct-23 13:33S 37°21' E 150°10'5212.9
2014-Oct-23 09:31S 36°31' E 150°25'1313.3
2014-Oct-23 08:33S 36°18' E 150°28'1313.4
2014-Oct-23 07:33S 36°05' E 150°33'1913.2
2014-Oct-23 06:04S 35°47' E 150°41'109 3.6
2014-Oct-21 23:32S 34°04' E 151°24'8 7.2
2014-Oct-21 22:25S 34°12' E 151°24'5 1.7
2014-Oct-21 19:29S 34°08' E 151°28'4 1.6
2014-Oct-21 17:11S 34°05' E 151°30'5 6.6
2014-Oct-21 16:27S 34°07' E 151°35'  

Dump ship's entire track history